Bad Radkersburg, Austria
Current Conditions -  °F | °C
As of 7:30 PM on Friday 21 Nov 2014 (Local Time) from LJMB Reporting Station
Broken Clouds Broken Clouds  
Wind Chill: 41°   Ceiling: 3300
Heat Index: 41°   Visibility: 6mi
Dew Point: 39°   Wind: 2mph
Humidity: 93%   Direction: 320°NW
Pressure: 30.27"   Gusts: NA
Location:  46.69°N, 15.99°E
Report Text: LJMB 211730Z 32002KT 9999 BKN033 05/04 Q1025
Loading
Personal Weather Stations






























Interactive Weather Map New forecast layout! Learn more

10-Day Weather Forecast

Advertisements
Track Severe Weather on mobile